createdAt,value
2017-12-17T00:00:57.629Z,101284.16
2017-12-17T00:03:23.876Z,101282.88
2017-12-17T00:05:50.112Z,101290.28
2017-12-17T00:08:16.326Z,101293.34
2017-12-17T00:10:42.807Z,101287.24
2017-12-17T00:13:09.046Z,101296.02
2017-12-17T00:15:35.246Z,101296.02
2017-12-17T00:18:01.476Z,101292.56
2017-12-17T00:20:27.677Z,101296.01
2017-12-17T00:22:53.895Z,101292.11
2017-12-17T00:25:20.492Z,101304.75
2017-12-17T00:27:46.693Z,101302.55
2017-12-17T00:30:13.153Z,101303.89
2017-12-17T00:32:39.799Z,101304.77
2017-12-17T00:35:06.004Z,101316.11
2017-12-17T00:37:32.215Z,101310.41
2017-12-17T00:39:58.474Z,101310.04
2017-12-17T00:42:24.680Z,101315.28
2017-12-17T00:44:50.864Z,101315.70
2017-12-17T00:47:17.125Z,101318.76
2017-12-17T00:49:43.326Z,101322.69
2017-12-17T00:52:09.525Z,101330.56
2017-12-17T00:54:35.785Z,101332.33
2017-12-17T00:57:01.974Z,101332.30
2017-12-17T00:59:28.435Z,101337.53
2017-12-17T01:01:54.718Z,101339.28
2017-12-17T01:04:20.934Z,101344.09
2017-12-17T01:06:47.137Z,101343.20
2017-12-17T01:09:13.374Z,101345.42
2017-12-17T01:11:39.789Z,101343.66
2017-12-17T01:14:06.122Z,101353.70
2017-12-17T01:16:32.317Z,101358.91
2017-12-17T01:18:58.580Z,101363.31
2017-12-17T01:21:24.826Z,101364.56
2017-12-17T01:23:51.023Z,101365.49
2017-12-17T01:26:17.305Z,101368.55
2017-12-17T01:28:44.111Z,101369.02
2017-12-17T01:31:10.293Z,101368.56
2017-12-17T01:33:36.491Z,101378.59
2017-12-17T01:36:03.031Z,101381.16
2017-12-17T01:38:29.214Z,101375.51
2017-12-17T01:40:55.496Z,101382.09
2017-12-17T01:43:21.736Z,101382.97
2017-12-17T01:45:47.906Z,101391.75
2017-12-17T01:48:14.102Z,101396.10
2017-12-17T01:50:40.974Z,101404.41
2017-12-17T01:53:07.153Z,101403.07
2017-12-17T01:55:33.369Z,101409.20
2017-12-17T01:57:59.950Z,101413.56
2017-12-17T02:00:26.182Z,101414.88
2017-12-17T02:02:52.608Z,101411.39
2017-12-17T02:05:19.176Z,101411.85
2017-12-17T02:07:45.381Z,101423.19
2017-12-17T02:10:11.761Z,101420.13
2017-12-17T02:12:38.325Z,101418.84
2017-12-17T02:15:04.565Z,101426.70
2017-12-17T02:17:30.760Z,101424.93
2017-12-17T02:19:57.417Z,101428.88
2017-12-17T02:22:23.631Z,101430.20
2017-12-17T02:24:49.881Z,101436.33
2017-12-17T02:27:16.170Z,101432.88
2017-12-17T02:29:42.378Z,101436.77
2017-12-17T02:32:08.617Z,101444.23
2017-12-17T02:34:35.118Z,101445.95
2017-12-17T02:37:01.324Z,101445.52
2017-12-17T02:39:27.536Z,101452.08
2017-12-17T02:41:54.194Z,101447.70
2017-12-17T02:44:20.411Z,101453.41
2017-12-17T02:46:46.626Z,101452.55
2017-12-17T02:49:13.281Z,101459.97
2017-12-17T02:51:39.764Z,101465.20
2017-12-17T02:54:06.076Z,101467.81
2017-12-17T02:56:32.343Z,101478.28
2017-12-17T02:58:58.540Z,101487.89
2017-12-17T03:01:24.743Z,101492.69
2017-12-17T03:03:51.374Z,101498.85
2017-12-17T03:06:17.630Z,101500.59
2017-12-17T03:08:43.839Z,101502.33
2017-12-17T03:11:10.405Z,101511.92
2017-12-17T03:13:36.600Z,101511.94
2017-12-17T03:16:02.822Z,101512.83
2017-12-17T03:18:29.099Z,101527.20
2017-12-17T03:20:55.295Z,101526.34
2017-12-17T03:23:21.527Z,101528.98
2017-12-17T03:25:47.774Z,101533.31
2017-12-17T03:28:14.026Z,101527.22
2017-12-17T03:30:40.494Z,101530.72
2017-12-17T03:33:06.740Z,101537.30
2017-12-17T03:35:32.939Z,101530.30
2017-12-17T03:37:59.146Z,101531.18
2017-12-17T03:40:25.432Z,101541.28
2017-12-17T03:42:51.659Z,101539.07
2017-12-17T03:45:18.177Z,101546.49
2017-12-17T03:47:44.967Z,101557.39
2017-12-17T03:50:11.174Z,101553.47
2017-12-17T03:52:37.392Z,101562.20
2017-12-17T03:55:03.721Z,101557.41
2017-12-17T03:57:29.953Z,101555.23
2017-12-17T03:59:56.238Z,101561.77
2017-12-17T04:02:22.483Z,101553.47
2017-12-17T04:04:48.933Z,101557.44
2017-12-17T04:07:15.137Z,101570.13
2017-12-17T04:09:41.786Z,101568.80
2017-12-17T04:12:07.993Z,101577.98
2017-12-17T04:14:34.205Z,101580.61
2017-12-17T04:17:00.767Z,101581.47
2017-12-17T04:19:26.986Z,101585.81
2017-12-17T04:21:53.202Z,101588.44
2017-12-17T04:24:19.448Z,101597.18
2017-12-17T04:26:45.756Z,101593.70
2017-12-17T04:29:11.957Z,101598.91
2017-12-17T04:31:38.210Z,101600.66
2017-12-17T04:34:04.420Z,101600.64
2017-12-17T04:36:30.629Z,101602.84
2017-12-17T04:38:56.879Z,101614.23
2017-12-17T04:41:23.313Z,101625.58
2017-12-17T04:43:49.518Z,101629.08
2017-12-17T04:46:15.769Z,101639.98
2017-12-17T04:48:41.954Z,101636.92
2017-12-17T04:51:08.145Z,101631.23
2017-12-17T04:53:34.396Z,101631.28
2017-12-17T04:56:00.602Z,101641.34
2017-12-17T04:58:26.807Z,101646.59
2017-12-17T05:00:53.310Z,101648.39
2017-12-17T05:03:19.494Z,101647.96
2017-12-17T05:05:45.693Z,101652.75
2017-12-17T05:08:11.962Z,101657.97
2017-12-17T05:10:38.468Z,101657.95
2017-12-17T05:13:04.690Z,101661.44
2017-12-17T05:15:30.942Z,101670.16
2017-12-17T05:17:57.158Z,101666.20
2017-12-17T05:20:23.342Z,101679.30
2017-12-17T05:22:49.596Z,101676.22
2017-12-17T05:25:15.801Z,101679.27
2017-12-17T05:27:42.128Z,101681.02
2017-12-17T05:30:08.378Z,101691.53
2017-12-17T05:32:34.561Z,101694.14
2017-12-17T05:35:00.821Z,101693.29
2017-12-17T05:37:27.014Z,101695.48
2017-12-17T05:39:53.224Z,101699.88
2017-12-17T05:42:20.049Z,101703.81
2017-12-17T05:44:46.245Z,101712.53
2017-12-17T05:47:12.670Z,101721.25
2017-12-17T05:49:38.925Z,101720.81
2017-12-17T05:52:05.155Z,101731.69
2017-12-17T05:54:31.350Z,101730.81
2017-12-17T05:56:57.653Z,101734.30
2017-12-17T05:59:23.856Z,101739.09
2017-12-17T06:01:50.067Z,101741.27
2017-12-17T06:04:16.326Z,101749.14
2017-12-17T06:06:42.549Z,101747.42
2017-12-17T06:09:08.771Z,101752.63
2017-12-17T06:11:35.592Z,101754.83
2017-12-17T06:14:01.770Z,101763.55
2017-12-17T06:16:27.965Z,101770.13
2017-12-17T06:18:54.226Z,101772.33
2017-12-17T06:21:20.697Z,101788.48
2017-12-17T06:23:46.908Z,101791.95
2017-12-17T06:26:13.149Z,101804.63
2017-12-17T06:28:39.440Z,101797.69
2017-12-17T06:31:05.644Z,101805.10
2017-12-17T06:33:31.890Z,101805.95
2017-12-17T06:35:58.090Z,101810.78
2017-12-17T06:38:24.285Z,101811.65
2017-12-17T06:40:50.586Z,101816.87
2017-12-17T06:43:16.747Z,101819.91
2017-12-17T06:45:42.945Z,101824.73
2017-12-17T06:48:09.445Z,101828.20
2017-12-17T06:50:35.635Z,101828.64
2017-12-17T06:53:01.828Z,101829.97
2017-12-17T06:55:28.466Z,101838.68
2017-12-17T06:57:54.680Z,101844.36
2017-12-17T07:00:20.893Z,101853.57
2017-12-17T07:02:47.154Z,101853.13
2017-12-17T07:05:13.598Z,101857.50
2017-12-17T07:07:40.069Z,101867.12
2017-12-17T07:10:06.664Z,101859.23
2017-12-17T07:12:33.146Z,101858.81
2017-12-17T07:14:59.586Z,101867.53
2017-12-17T07:17:25.852Z,101870.16
2017-12-17T07:19:52.058Z,101860.97
2017-12-17T07:22:18.311Z,101868.39
2017-12-17T07:24:44.556Z,101868.41
2017-12-17T07:27:10.773Z,101866.64
2017-12-17T07:29:37.126Z,101871.02
2017-12-17T07:32:03.499Z,101883.24
2017-12-17T07:34:29.793Z,101880.61
2017-12-17T07:36:55.993Z,101889.33
2017-12-17T07:39:22.266Z,101896.33
2017-12-17T07:41:48.451Z,101897.17
2017-12-17T07:44:14.666Z,101895.44
2017-12-17T07:46:40.947Z,101895.45
2017-12-17T07:49:07.157Z,101898.95
2017-12-17T07:51:33.380Z,101902.01
2017-12-17T07:53:59.653Z,101916.84
2017-12-17T07:56:25.841Z,101919.89
2017-12-17T07:58:52.039Z,101923.83
2017-12-17T08:01:18.693Z,101922.09
2017-12-17T08:03:44.898Z,101929.05
2017-12-17T08:06:11.138Z,101929.47
2017-12-17T08:08:37.438Z,101935.17
2017-12-17T08:11:03.766Z,101936.92
2017-12-17T08:13:29.957Z,101938.66
2017-12-17T08:15:56.315Z,101941.73
2017-12-17T08:18:22.512Z,101949.15
2017-12-17T08:20:48.733Z,101952.18
2017-12-17T08:23:15.355Z,101962.25
2017-12-17T08:25:41.593Z,101960.04
2017-12-17T08:28:07.936Z,101956.57
2017-12-17T08:30:34.203Z,101964.88
2017-12-17T08:33:00.439Z,101961.81
2017-12-17T08:35:26.657Z,101961.35
2017-12-17T08:37:53.236Z,101960.08
2017-12-17T08:40:19.450Z,101964.01
2017-12-17T08:42:45.698Z,101970.97
2017-12-17T08:45:12.326Z,101967.49
2017-12-17T08:47:38.516Z,101972.30
2017-12-17T08:50:04.738Z,101981.89
2017-12-17T08:52:31.006Z,101978.42
2017-12-17T08:54:57.204Z,101979.27
2017-12-17T08:57:23.484Z,101984.09
2017-12-17T08:59:49.757Z,101991.07
2017-12-17T09:02:15.991Z,101998.94
2017-12-17T09:04:42.192Z,102009.83
2017-12-17T09:07:08.445Z,102010.69
2017-12-17T09:09:34.677Z,102017.27
2017-12-17T09:12:00.878Z,102016.81
2017-12-17T09:14:27.133Z,102018.55
2017-12-17T09:16:53.317Z,102019.47
2017-12-17T09:19:19.506Z,102022.08
2017-12-17T09:21:45.787Z,102027.74
2017-12-17T09:24:11.989Z,102030.77
2017-12-17T09:26:38.182Z,102037.37
2017-12-17T09:29:04.751Z,102038.69
2017-12-17T09:31:30.968Z,102045.66
2017-12-17T09:33:57.438Z,102040.86
2017-12-17T09:36:23.674Z,102050.06
2017-12-17T09:38:49.877Z,102043.05
2017-12-17T09:41:16.134Z,102046.52
2017-12-17T09:43:42.359Z,102055.27
2017-12-17T09:46:08.585Z,102058.75
2017-12-17T09:48:34.884Z,102058.31
2017-12-17T09:51:01.094Z,102063.98
2017-12-17T09:53:27.298Z,102064.44
2017-12-17T09:55:53.853Z,102065.75
2017-12-17T09:58:20.069Z,102072.27
2017-12-17T10:00:46.262Z,102072.72
2017-12-17T10:03:12.494Z,102065.72
2017-12-17T10:05:38.707Z,102066.61
2017-12-17T10:08:04.912Z,102066.59
2017-12-17T10:10:31.538Z,102067.03
2017-12-17T10:12:57.761Z,102071.38
2017-12-17T10:15:23.987Z,102070.85
2017-12-17T10:17:50.233Z,102059.50
2017-12-17T10:20:16.443Z,102061.56
2017-12-17T10:22:42.644Z,102056.51
2017-12-17T10:25:08.871Z,102056.20
2017-12-17T10:27:35.303Z,102050.56
2017-12-17T10:30:01.546Z,102057.19
2017-12-17T10:32:27.819Z,102055.91
2017-12-17T10:34:54.066Z,102062.51
2017-12-17T10:37:20.326Z,102052.46
2017-12-17T10:39:46.591Z,102056.86
2017-12-17T10:42:12.798Z,102060.37
2017-12-17T10:44:39.014Z,102057.33
2017-12-17T10:47:05.284Z,102052.97
2017-12-17T10:49:31.514Z,102055.59
2017-12-17T10:51:57.717Z,102061.73
2017-12-17T10:54:23.999Z,102061.30
2017-12-17T10:56:50.213Z,102060.41
2017-12-17T10:59:16.430Z,102058.66
2017-12-17T11:01:43.154Z,102051.64
2017-12-17T11:04:09.363Z,102052.95
2017-12-17T11:06:35.556Z,102053.39
2017-12-17T11:09:01.841Z,102061.27
2017-12-17T11:11:28.053Z,102067.83
2017-12-17T11:13:54.282Z,102055.11
2017-12-17T11:16:20.574Z,102060.34
2017-12-17T11:18:46.771Z,102059.04
2017-12-17T11:21:12.966Z,102056.40
2017-12-17T11:23:39.223Z,102056.42
2017-12-17T11:26:05.441Z,102050.33
2017-12-17T11:28:31.875Z,102059.48
2017-12-17T11:30:58.133Z,102053.81
2017-12-17T11:33:24.686Z,102063.02
2017-12-17T11:35:50.917Z,102068.27
2017-12-17T11:38:17.169Z,102068.28
2017-12-17T11:40:43.374Z,102071.30
2017-12-17T11:43:09.584Z,102070.87
2017-12-17T11:45:36.587Z,102072.61
2017-12-17T11:48:02.847Z,102066.94
2017-12-17T11:50:29.031Z,102063.45
2017-12-17T11:52:55.310Z,102060.84
2017-12-17T11:55:21.769Z,102056.89
2017-12-17T11:57:47.990Z,102053.39
2017-12-17T12:00:14.356Z,102061.27
2017-12-17T12:02:40.576Z,102060.86
2017-12-17T12:05:06.782Z,102062.58
2017-12-17T12:07:33.021Z,102060.84
2017-12-17T12:09:59.233Z,102060.40
2017-12-17T12:12:25.465Z,102062.58
2017-12-17T12:14:52.015Z,102056.91
2017-12-17T12:17:18.238Z,102059.95
2017-12-17T12:19:44.437Z,102062.11
2017-12-17T12:22:10.690Z,102065.60
2017-12-17T12:24:36.908Z,102062.94
2017-12-17T12:27:03.167Z,102060.73
2017-12-17T12:29:29.422Z,102070.76
2017-12-17T12:31:55.636Z,102065.08
2017-12-17T12:34:21.946Z,102063.77
2017-12-17T12:36:48.609Z,102066.81
2017-12-17T12:39:14.818Z,102071.62
2017-12-17T12:41:41.043Z,102066.77
2017-12-17T12:44:07.329Z,102069.39
2017-12-17T12:46:33.548Z,102063.28
2017-12-17T12:49:00.102Z,102054.52
2017-12-17T12:51:26.377Z,102061.95
2017-12-17T12:53:52.589Z,102064.98
2017-12-17T12:56:18.796Z,102061.48
2017-12-17T12:58:45.469Z,102059.25
2017-12-17T13:01:11.972Z,102060.13
2017-12-17T13:03:38.178Z,102059.69
2017-12-17T13:06:04.458Z,102063.16
2017-12-17T13:08:30.921Z,102063.58
2017-12-17T13:10:57.386Z,102058.31
2017-12-17T13:13:24.316Z,102061.81
2017-12-17T13:15:50.541Z,102056.13
2017-12-17T13:18:16.771Z,102068.76
2017-12-17T13:20:43.036Z,102071.82
2017-12-17T13:23:09.547Z,102070.08
2017-12-17T13:25:35.772Z,102066.55
2017-12-17T13:28:02.028Z,102068.74
2017-12-17T13:30:28.258Z,102073.53
2017-12-17T13:32:54.463Z,102067.39
2017-12-17T13:35:21.149Z,102076.15
2017-12-17T13:37:47.397Z,102080.99
2017-12-17T13:40:13.624Z,102075.70
2017-12-17T13:42:39.897Z,102080.10
2017-12-17T13:45:06.100Z,102074.84
2017-12-17T13:47:32.295Z,102077.89
2017-12-17T13:49:58.922Z,102078.75
2017-12-17T13:52:25.158Z,102078.77
2017-12-17T13:54:51.362Z,102082.71
2017-12-17T13:57:17.613Z,102088.42
2017-12-17T13:59:43.821Z,102095.89
2017-12-17T14:02:10.050Z,102093.72
2017-12-17T14:04:36.321Z,102102.46
2017-12-17T14:07:02.528Z,102091.50
2017-12-17T14:09:28.740Z,102094.56
2017-12-17T14:11:55.232Z,102100.70
2017-12-17T14:14:21.514Z,102093.22
2017-12-17T14:16:47.742Z,102104.63
2017-12-17T14:19:14.006Z,102100.24
2017-12-17T14:21:40.240Z,102098.95
2017-12-17T14:24:06.478Z,102094.17
2017-12-17T14:26:32.773Z,102093.34
2017-12-17T14:28:58.974Z,102092.05
2017-12-17T14:31:25.189Z,102093.77
2017-12-17T14:33:51.457Z,102092.48
2017-12-17T14:36:18.018Z,102095.98
2017-12-17T14:38:49.021Z,102091.63
2017-12-17T14:41:15.369Z,102101.27
2017-12-17T14:43:41.579Z,102104.34
2017-12-17T14:46:07.860Z,102106.56
2017-12-17T14:48:34.648Z,102103.49
2017-12-17T14:51:00.898Z,102109.20
2017-12-17T14:53:27.116Z,102109.64
2017-12-17T14:55:53.622Z,102111.87
2017-12-17T14:58:19.901Z,102107.08
2017-12-17T15:00:46.165Z,102104.89
2017-12-17T15:03:12.461Z,102105.34
2017-12-17T15:05:38.681Z,102111.92
2017-12-17T15:08:04.938Z,102115.88
2017-12-17T15:10:31.526Z,102117.17
2017-12-17T15:12:57.737Z,102122.85
2017-12-17T15:15:24.066Z,102123.73
2017-12-17T15:17:50.620Z,102129.89
2017-12-17T15:20:16.877Z,102121.13
2017-12-17T15:22:43.095Z,102130.76
2017-12-17T15:25:09.374Z,102128.58
2017-12-17T15:27:35.595Z,102125.94
2017-12-17T15:30:01.833Z,102132.53
2017-12-17T15:32:28.107Z,102129.02
2017-12-17T15:34:54.350Z,102119.41
2017-12-17T15:37:20.663Z,102115.94
2017-12-17T15:39:46.916Z,102115.95
2017-12-17T15:42:13.150Z,102118.13
2017-12-17T15:44:39.355Z,102114.64
2017-12-17T15:47:05.648Z,102115.94
2017-12-17T15:49:31.846Z,102116.84
2017-12-17T15:51:58.343Z,102114.18
2017-12-17T15:54:24.625Z,102116.82
2017-12-17T15:56:50.812Z,102114.21
2017-12-17T15:59:17.008Z,102115.52
2017-12-17T16:01:43.666Z,102121.66
2017-12-17T16:04:09.882Z,102118.16
2017-12-17T16:06:36.081Z,102116.42
2017-12-17T16:09:02.448Z,102114.21
2017-12-17T16:11:28.657Z,102119.47
2017-12-17T16:13:54.852Z,102112.05
2017-12-17T16:16:21.157Z,102113.78
2017-12-17T16:18:47.366Z,102108.56
2017-12-17T16:21:13.566Z,102112.06
2017-12-17T16:23:39.837Z,102109.00
2017-12-17T16:26:06.080Z,102108.55
2017-12-17T16:28:32.307Z,102107.69
2017-12-17T16:30:58.558Z,102109.00
2017-12-17T16:33:24.764Z,102100.70
2017-12-17T16:35:51.030Z,102098.08
2017-12-17T16:38:17.633Z,102100.72
2017-12-17T16:40:43.914Z,102099.83
2017-12-17T16:43:10.123Z,102094.16
2017-12-17T16:45:36.385Z,102092.41
2017-12-17T16:48:02.589Z,102092.84
2017-12-17T16:50:28.850Z,102096.77
2017-12-17T16:52:55.091Z,102095.91
2017-12-17T16:55:21.309Z,102098.53
2017-12-17T16:57:47.504Z,102097.23
2017-12-17T17:00:17.008Z,102089.34
2017-12-17T17:02:43.222Z,102092.41
2017-12-17T17:05:09.422Z,102091.55
2017-12-17T17:07:35.661Z,102090.22
2017-12-17T17:10:01.851Z,102079.73
2017-12-17T17:12:28.077Z,102074.08
2017-12-17T17:14:54.427Z,102070.13
2017-12-17T17:17:20.638Z,102070.13
2017-12-17T17:19:46.833Z,102065.77
2017-12-17T17:22:13.168Z,102072.30
2017-12-17T17:24:39.465Z,102064.44
2017-12-17T17:27:05.924Z,102066.64
2017-12-17T17:29:32.514Z,102063.55
2017-12-17T17:31:58.710Z,102060.52
2017-12-17T17:34:25.339Z,102063.13
2017-12-17T17:36:51.531Z,102062.69
2017-12-17T17:39:18.001Z,102060.52
2017-12-17T17:41:44.280Z,102060.08
2017-12-17T17:44:10.489Z,102054.83
2017-12-17T17:46:36.664Z,102059.19
2017-12-17T17:49:03.245Z,102059.19
2017-12-17T17:51:29.472Z,102059.21
2017-12-17T17:53:55.678Z,102057.02
2017-12-17T17:56:22.311Z,102055.70
2017-12-17T17:58:48.494Z,102048.28
2017-12-17T18:01:14.678Z,102052.66
2017-12-17T18:03:40.932Z,102050.00
2017-12-17T18:06:07.176Z,102050.88
2017-12-17T18:08:33.433Z,102047.39
2017-12-17T18:10:59.706Z,102053.51
2017-12-17T18:13:25.958Z,102056.57
2017-12-17T18:15:52.181Z,102054.39
2017-12-17T18:18:18.765Z,102054.38
2017-12-17T18:20:44.933Z,102046.97
2017-12-17T18:23:11.133Z,102058.75
2017-12-17T18:25:37.374Z,102058.75
2017-12-17T18:28:03.808Z,102054.83
2017-12-17T18:30:30.009Z,102053.95
2017-12-17T18:32:56.478Z,102053.95
2017-12-17T18:35:22.669Z,102047.41
2017-12-17T18:37:48.893Z,102043.03
2017-12-17T18:40:15.179Z,102049.14
2017-12-17T18:42:41.377Z,102048.27
2017-12-17T18:45:07.820Z,102042.18
2017-12-17T18:47:34.656Z,102034.76
2017-12-17T18:50:00.845Z,102035.62
2017-12-17T18:52:27.349Z,102040.41
2017-12-17T18:54:53.573Z,102041.31
2017-12-17T18:57:19.774Z,102035.16
2017-12-17T18:59:46.212Z,102030.37
2017-12-17T19:02:12.452Z,102036.50
2017-12-17T19:04:38.640Z,102030.80
2017-12-17T19:07:04.842Z,102028.62
2017-12-17T19:09:31.081Z,102021.63
2017-12-17T19:11:57.258Z,102010.29
2017-12-17T19:14:23.689Z,102014.65
2017-12-17T19:16:49.938Z,102019.44
2017-12-17T19:19:16.131Z,102010.70
2017-12-17T19:21:42.341Z,102019.03
2017-12-17T19:24:08.627Z,102029.52
2017-12-17T19:26:34.821Z,102024.66
2017-12-17T19:29:00.998Z,102028.16
2017-12-17T19:31:27.240Z,102021.63
2017-12-17T19:33:53.530Z,102031.66
2017-12-17T19:36:20.009Z,102027.76
2017-12-17T19:38:46.257Z,102032.55
2017-12-17T19:41:12.469Z,102036.03
2017-12-17T19:43:38.686Z,102031.66
2017-12-17T19:46:04.922Z,102038.64
2017-12-17T19:48:31.115Z,102046.08
2017-12-17T19:50:57.308Z,102053.06
2017-12-17T19:53:24.125Z,102048.70
2017-12-17T19:55:50.567Z,102053.51
2017-12-17T19:58:16.772Z,102054.81
2017-12-17T20:00:43.105Z,102054.41
2017-12-17T20:03:09.358Z,102052.67
2017-12-17T20:05:35.544Z,102059.22
2017-12-17T20:08:01.752Z,102062.72
2017-12-17T20:10:27.991Z,102058.77
2017-12-17T20:12:54.510Z,102054.84
2017-12-17T20:15:20.941Z,102055.70
2017-12-17T20:17:47.202Z,102064.01
2017-12-17T20:20:13.458Z,102062.70
2017-12-17T20:22:39.697Z,102067.05
2017-12-17T20:25:06.041Z,102067.92
2017-12-17T20:27:32.298Z,102062.69
2017-12-17T20:29:58.567Z,102058.77
2017-12-17T20:32:24.898Z,102056.13
2017-12-17T20:34:51.115Z,102052.21
2017-12-17T20:37:17.337Z,102050.91
2017-12-17T20:39:43.857Z,102045.67
2017-12-17T20:42:10.050Z,102043.48
2017-12-17T20:44:36.511Z,102034.74
2017-12-17T20:47:02.757Z,102036.05
2017-12-17T20:49:28.945Z,102029.05
2017-12-17T20:51:55.137Z,102017.70
2017-12-17T20:54:21.420Z,102021.19
2017-12-17T20:56:47.617Z,102021.63
2017-12-17T20:59:13.849Z,102021.61
2017-12-17T21:01:40.421Z,102010.69
2017-12-17T21:04:06.625Z,102010.69
2017-12-17T21:06:32.829Z,102009.83
2017-12-17T21:08:59.083Z,102006.33
2017-12-17T21:11:25.278Z,102001.97
2017-12-17T21:13:51.717Z,101998.90
2017-12-17T21:16:17.978Z,101998.44
2017-12-17T21:18:44.181Z,101993.66
2017-12-17T21:21:10.370Z,101996.70
2017-12-17T21:23:36.921Z,101997.59
2017-12-17T21:26:03.122Z,101990.59
2017-12-17T21:28:29.306Z,101993.22
2017-12-17T21:30:55.856Z,101990.59
2017-12-17T21:33:22.099Z,102001.93
2017-12-17T21:35:48.293Z,102001.50
2017-12-17T21:38:14.560Z,102002.38
2017-12-17T21:40:40.775Z,101991.44
2017-12-17T21:43:07.050Z,101995.81
2017-12-17T21:45:33.330Z,101989.26
2017-12-17T21:47:59.570Z,101988.39
2017-12-17T21:50:25.757Z,101980.06
2017-12-17T21:52:52.023Z,101986.19
2017-12-17T21:55:18.232Z,101982.27
2017-12-17T21:57:44.442Z,101980.08
2017-12-17T22:00:10.815Z,101983.16
2017-12-17T22:02:37.030Z,101985.79
2017-12-17T22:05:03.213Z,101984.89
2017-12-17T22:07:29.516Z,101982.70
2017-12-17T22:09:55.725Z,101979.22
2017-12-17T22:12:21.926Z,101973.50
2017-12-17T22:14:48.455Z,101972.22
2017-12-17T22:17:14.654Z,101972.66
2017-12-17T22:19:40.862Z,101969.16
2017-12-17T22:22:07.125Z,101969.16
2017-12-17T22:24:33.315Z,101972.66
2017-12-17T22:26:59.527Z,101965.66
2017-12-17T22:29:25.794Z,101968.73
2017-12-17T22:31:51.977Z,101961.32
2017-12-17T22:34:18.164Z,101960.02
2017-12-17T22:36:44.442Z,101962.19
2017-12-17T22:39:10.650Z,101949.92
2017-12-17T22:41:37.161Z,101952.10
2017-12-17T22:44:03.436Z,101945.11
2017-12-17T22:46:29.642Z,101946.88
2017-12-17T22:48:55.828Z,101939.43
2017-12-17T22:51:22.081Z,101941.62
2017-12-17T22:53:48.313Z,101940.73
2017-12-17T22:56:14.633Z,101933.75
2017-12-17T22:58:40.872Z,101932.02
2017-12-17T23:01:07.405Z,101935.52
2017-12-17T23:03:33.601Z,101926.33
2017-12-17T23:06:00.211Z,101923.72
2017-12-17T23:08:26.417Z,101924.59
2017-12-17T23:10:52.622Z,101922.84
2017-12-17T23:13:18.897Z,101915.44
2017-12-17T23:15:45.102Z,101913.23
2017-12-17T23:18:11.285Z,101919.35
2017-12-17T23:20:37.770Z,101905.80
2017-12-17T23:23:03.964Z,101906.64
2017-12-17T23:25:30.181Z,101909.70
2017-12-17T23:27:56.431Z,101905.77
2017-12-17T23:30:22.629Z,101903.59
2017-12-17T23:32:48.829Z,101904.06
2017-12-17T23:35:15.121Z,101907.13
2017-12-17T23:37:41.305Z,101903.17
2017-12-17T23:40:07.485Z,101894.43
2017-12-17T23:42:33.733Z,101901.41
2017-12-17T23:44:59.926Z,101900.55
2017-12-17T23:47:26.131Z,101892.21
2017-12-17T23:49:52.685Z,101883.92
2017-12-17T23:52:19.154Z,101885.23
2017-12-17T23:54:45.350Z,101883.45
2017-12-17T23:57:11.959Z,101879.09
2017-12-17T23:59:38.149Z,101868.63
